• Join FlightAware (Why Join?)
  • Login
  • US Flag 
03:38PM EDT


 

Airport Tracker/Info


-or-


 

Live Flight TrackerFlight Track Log ✈ SWA2182 ✈ 03-May-2013 ✈ KSMF - KSAN

Flight Track Log - Related Links

Times and Time Zones

All times are in EDT time to prevent confusion due to time zone crossing. See the SWA2182 flight status page for this flight to view local times or setup timezone preferences in your user account.

Time Position Orientation Groundspeed Altitude Reporting Facility
EDT Latitude Longitude Course Direction KTS MPH feet Rate Location/Type
09:15AM 38.7167 -121.6000 21° North 159 183 1,200  Level Northern Cal TRACON
09:16AM 38.7500 -121.5833 21° North 213 245 3,200 2,760 Climbing Northern Cal TRACON
09:18AM 38.6525 -121.4147 126° Southeast 280 322 10,600 2,880 Climbing Oakland Center
09:19AM 38.5975 -121.3178 126° Southeast 337 388 13,300 3,000 Climbing Oakland Center
09:20AM 38.5378 -121.2108 126° Southeast 362 417 16,700 3,180 Climbing Oakland Center
09:21AM 38.4733 -121.1011 127° Southeast 378 435 19,800 3,000 Climbing Oakland Center
09:22AM 38.4064 -120.9853 126° Southeast 396 456 22,800 2,580 Climbing Oakland Center
09:23AM 38.3369 -120.8644 126° Southeast 415 478 25,100 2,340 Climbing Oakland Center
09:24AM 38.2631 -120.7381 127° Southeast 435 501 27,600 2,220 Climbing Oakland Center
09:25AM 38.1753 -120.6256 135° Southeast 445 512 29,600 2,040 Climbing Oakland Center
09:27AM 38.0511 -120.5069 143° Southeast 461 531 31,800 2,220 Climbing Oakland Center
09:28AM 37.9475 -120.4078 143° Southeast 465 535 34,100 1,860 Climbing Oakland Center
09:29AM 37.8344 -120.3375 154° Southeast 454 522 35,600 1,500 Climbing Oakland Center
09:30AM 37.7139 -120.2778 159° South 459 528 37,200 1,680 Climbing Oakland Center
09:31AM 37.5958 -120.2167 158° South 460 529 39,000 840 Climbing Oakland Center
09:32AM 37.4797 -120.1583 158° South 452 520 39,000  Level Oakland Center
09:33AM 37.3592 -120.1017 160° South 462 532 39,000  Level Oakland Center
09:34AM 37.2439 -120.0422 158° South 447 514 39,000  Level Oakland Center
09:35AM 37.1275 -119.9844 158° South 447 514 39,000  Level Oakland Center
09:36AM 37.0147 -119.9258 157° South 443 510 39,000  Level Oakland Center
09:37AM 36.9003 -119.8683 158° South 443 510 39,000  Level Oakland Center
09:38AM 36.7842 -119.8111 158° South 445 512 39,000  Level Oakland Center
09:39AM 36.6681 -119.7486 157° South 462 532 39,000  Level Oakland Center
09:40AM 36.5528 -119.6906 158° South 449 517 39,000  Level Oakland Center
09:41AM 36.4353 -119.6319 158° South 452 520 39,000  Level Oakland Center
09:42AM 36.3189 -119.5744 158° South 450 518 39,000  Level Oakland Center
09:43AM 36.2022 -119.5172 158° South 451 519 39,000  Level Oakland Center
09:44AM 36.0850 -119.4597 158° South 453 521 39,000  Level Oakland Center
09:45AM 35.9478 -119.3925 158° South 444 511 39,000  Level Oakland Center
09:46AM 35.8322 -119.3375 159° South 440 506 39,000  Level Oakland Center
09:47AM 35.7128 -119.2786 158° South 453 521 39,000  Level Oakland Center
09:48AM 35.5958 -119.2222 159° South 452 520 39,000  Level Oakland Center
09:49AM 35.4814 -119.1661 158° South 445 512 39,000  Level Oakland Center
09:50AM 35.3422 -119.0994 159° South 445 512 39,000  Level Los Angeles Center
09:51AM 35.2253 -119.0436 159° South 447 514 39,000  Level Los Angeles Center
09:52AM 35.1086 -118.9858 158° South 450 518 39,000  Level Los Angeles Center
09:53AM 34.9914 -118.9308 159° South 450 518 39,000  Level Los Angeles Center
09:54AM 34.8678 -118.8731 159° South 444 511 39,000  Level Los Angeles Center
09:55AM 34.7539 -118.8186 159° South 442 509 39,000  Level Los Angeles Center
09:56AM 34.6394 -118.7653 159° South 441 507 39,000  Level Los Angeles Center
09:57AM 34.5261 -118.7106 158° South 439 505 39,000  Level Los Angeles Center
09:58AM 34.4128 -118.6569 159° South 438 504 39,000  Level Los Angeles Center
09:59AM 34.2761 -118.5886 158° South 443 510 39,000  Level Los Angeles Center
10:00AM 34.1772 -118.4939 142° Southeast 451 519 39,000  Level Los Angeles Center
10:01AM 34.0778 -118.4000 142° Southeast 452 520 39,000 -600 Level Los Angeles Center
10:02AM 33.9778 -118.3056 142° Southeast 452 520 37,800 -2,340 Descending Los Angeles Center
10:03AM 33.8739 -118.2072 142° Southeast 462 532 34,300 -3,000 Descending Los Angeles Center
10:04AM 33.7675 -118.1089 142° Southeast 470 541 31,700 -2,700 Descending Los Angeles Center
10:05AM 33.6650 -118.0136 142° Southeast 463 533 28,800 -1,860 Descending Los Angeles Center
10:06AM 33.5614 -117.9169 142° Southeast 467 537 28,000 -1,920 Descending Los Angeles Center
10:08AM 33.4333 -117.7833 139° Southeast 453 521 24,700 -2,940 Descending Southern California TRACON
10:09AM 33.3494 -117.6892 137° Southeast 465 535 22,000 -2,880 Descending Los Angeles Center
10:10AM 33.2661 -117.5839 133° Southeast 444 511 19,100 -3,120 Descending Los Angeles Center
10:11AM 33.1778 -117.5025 142° Southeast 410 472 15,700 -3,000 Descending Los Angeles Center
10:12AM 33.0833 -117.4333 148° Southeast 374 430 13,000 -2,340 Descending Southern California TRACON
10:13AM 33.0000 -117.3667 146° Southeast 360 414 11,300 -1,500 Descending Southern California TRACON
10:14AM 32.9167 -117.3000 146° Southeast 323 372 10,000 -1,260 Descending Southern California TRACON
10:15AM 32.8500 -117.2500 148° Southeast 298 343 8,700 -1,380 Descending Southern California TRACON
10:16AM 32.8167 -117.1833 121° Southeast 278 320 7,400 -1,380 Descending Southern California TRACON
10:17AM 32.7833 -117.1167 121° Southeast 226 260 6,100 -1,500 Descending Southern California TRACON
10:18AM 32.7667 -117.0500 107° East 189 217 4,400 -1,740 Descending Southern California TRACON
10:18AM 32.7167 -117.0500 180° South 195 224 2,900 -1,440 Descending Southern California TRACON
10:19AM 32.7167 -117.1000 270° West 163 188 1,700 -1,260 Descending Southern California TRACON
10:20AM 32.7181 -117.1250 274° West 161 185 1,100 -960 Descending Los Angeles Center
10:21AM 32.7281 -117.1672 286° West 145 167 300 -780 Descending Los Angeles Center